Aviation Digital Data Service (ADDS)

Output produced by METARs form (1706 UTC 19 January 2017)
found at http://aviationweather.gov/adds/metars/
 
KFAY 191123Z 1912/2012 VRB03KT P6SM SCT250 
     FM200600 11003KT P6SM OVC100 
     FM200900 08003KT P6SM OVC050 
     TEMPO 2009/2012 5SM -RA OVC050